Time;durP1;ratioP1;P1;durP2;ratioP2;P2;SDS_P1;SDS_P2;PMS_P1;PMS_P2;Temp;Humidity;BMP_temperature;BMP_pressure;BME280_temperature;BME280_humidity;BME280_pressure;Samples;Min_cycle;Max_cycle;Signal;HPM_P1;HPM_P2
2023/08/22 00:02:19;;;;;;;12.10;9.43;;;;;;;-145.00;57.25;72651.59;5069720;28;20514;-71
2023/08/22 00:04:45;;;;;;;12.05;9.15;;;;;;;-145.00;57.53;72659.91;5070653;28;20045;-72
2023/08/22 00:07:13;;;;;;;10.70;8.80;;;;;;;-145.00;57.65;72668.22;5069162;28;20407;-71
2023/08/22 00:09:40;;;;;;;10.68;9.00;;;;;;;-145.00;57.51;72666.16;5070320;28;20040;-72
2023/08/22 00:12:07;;;;;;;12.23;9.52;;;;;;;-145.00;57.80;72668.22;5069677;28;20051;-71
2023/08/22 00:14:33;;;;;;;10.48;8.88;;;;;;;-145.00;57.62;72662.00;5070413;28;20042;-71
2023/08/22 00:17:00;;;;;;;14.90;9.52;;;;;;;-145.00;57.63;72659.91;5069333;28;20048;-72
2023/08/22 00:19:26;;;;;;;13.18;9.00;;;;;;;-145.00;57.86;72657.81;5070105;28;20047;-71
2023/08/22 00:21:53;;;;;;;11.45;8.90;;;;;;;-145.00;57.70;72659.91;5070066;28;20047;-72
2023/08/22 00:24:21;;;;;;;9.68;8.52;;;;;;;-145.00;57.98;72659.91;5069413;28;20045;-72
2023/08/22 00:26:48;;;;;;;12.70;9.15;;;;;;;-145.00;57.94;72659.91;5070040;28;20041;-72
2023/08/22 00:29:14;;;;;;;12.90;9.05;;;;;;;-145.00;57.72;72651.59;5069477;28;20044;-72
2023/08/22 00:31:41;;;;;;;12.52;9.07;;;;;;;-145.00;57.82;72657.81;5070087;28;20044;-71
2023/08/22 00:34:07;;;;;;;11.32;8.90;;;;;;;-145.00;57.88;72659.91;5069600;28;20048;-72
2023/08/22 00:36:34;;;;;;;12.15;8.90;;;;;;;-145.00;58.08;72664.06;5069927;28;20048;-72
2023/08/22 00:39:00;;;;;;;9.93;8.90;;;;;;;-145.00;58.04;72670.31;5069890;28;20049;-71
2023/08/22 00:41:28;;;;;;;11.45;9.25;;;;;;;-145.00;58.21;72676.56;5069657;28;20044;-71
2023/08/22 00:43:54;;;;;;;11.63;9.40;;;;;;;-145.00;58.38;72689.06;5069500;28;20062;-71
2023/08/22 00:46:23;;;;;;;14.80;9.95;;;;;;;-145.00;58.70;72686.97;5069120;28;20048;-72
2023/08/22 00:48:50;;;;;;;12.35;9.57;;;;;;;-145.00;58.66;72695.28;5069815;28;20079;-72
2023/08/22 00:51:18;;;;;;;15.05;9.45;;;;;;;-145.00;58.76;72691.13;5069245;28;20659;-72
2023/08/22 00:53:45;;;;;;;10.75;9.30;;;;;;;-145.00;58.72;72691.13;5069534;28;20041;-71
2023/08/22 00:56:12;;;;;;;13.98;9.20;;;;;;;-145.00;58.88;72697.38;5069028;28;20040;-72
2023/08/22 00:58:40;;;;;;;11.02;8.63;;;;;;;-145.00;58.73;72701.53;5069981;28;20051;-72
2023/08/22 01:01:06;;;;;;;12.23;9.80;;;;;;;-145.00;58.88;72701.53;5068808;28;20049;-72
2023/08/22 01:03:34;;;;;;;12.02;9.05;;;;;;;-145.00;59.00;72695.28;5069088;28;20403;-72
2023/08/22 01:06:04;;;;;;;12.38;9.93;;;;;;;-145.00;59.04;72701.53;5069300;28;20106;-72
2023/08/22 01:08:34;;;;;;;10.30;8.75;;;;;;;-145.00;58.76;72697.38;5069152;28;20451;-72
2023/08/22 01:11:09;;;;;;;11.82;9.80;;;;;;;-145.00;58.76;72701.53;5069622;28;20051;-72
2023/08/22 01:13:42;;;;;;;10.32;9.02;;;;;;;-145.00;59.00;72709.88;5069654;28;20051;-71
2023/08/22 01:16:08;;;;;;;11.13;9.48;;;;;;;-145.00;58.88;72705.69;5068502;28;20048;-71
2023/08/22 01:18:35;;;;;;;10.30;9.20;;;;;;;-145.00;58.96;72705.69;5069673;28;20033;-71
2023/08/22 01:21:05;;;;;;;12.80;9.25;;;;;;;-145.00;59.02;72707.78;5069158;28;20455;-72
2023/08/22 01:23:32;;;;;;;12.20;8.88;;;;;;;-145.00;58.98;72703.63;5069597;28;20041;-72
2023/08/22 01:26:02;;;;;;;12.45;9.45;;;;;;;-145.00;58.82;72703.63;5069213;28;20044;-72
2023/08/22 01:28:35;;;;;;;12.35;9.07;;;;;;;-145.00;58.85;72701.53;5071048;28;20123;-72
2023/08/22 01:31:08;;;;;;;11.02;9.30;;;;;;;-145.00;59.11;72701.53;5067815;28;20048;-72
2023/08/22 01:33:38;;;;;;;12.00;9.10;;;;;;;-145.00;58.91;72695.28;5073233;28;20048;-72
2023/08/22 01:36:07;;;;;;;11.00;9.25;;;;;;;-145.00;58.73;72701.53;5073180;28;20051;-72
2023/08/22 01:38:37;;;;;;;14.07;9.73;;;;;;;-145.00;58.38;72691.13;5074071;28;20064;-72
2023/08/22 01:41:05;;;;;;;12.95;8.95;;;;;;;-145.00;57.92;72693.22;5073306;28;20049;-72
2023/08/22 01:43:34;;;;;;;11.30;9.15;;;;;;;-145.00;58.53;72726.53;5073461;28;20046;-73
2023/08/22 01:46:00;;;;;;;11.85;8.90;;;;;;;-145.00;59.28;72739.00;5073145;28;20051;-72
2023/08/22 01:48:27;;;;;;;12.15;9.98;;;;;;;-145.00;60.24;72764.00;5072926;28;20048;-72
2023/08/22 01:50:53;;;;;;;12.13;9.30;;;;;;;-145.00;59.94;72755.66;5076108;28;20041;-72
2023/08/22 01:53:20;;;;;;;10.95;9.25;;;;;;;-145.00;59.46;72747.34;5075377;28;20040;-73
2023/08/22 01:55:47;;;;;;;12.35;9.60;;;;;;;-145.00;59.00;72739.00;5074979;28;20047;-72
2023/08/22 01:58:15;;;;;;;10.27;9.15;;;;;;;-145.00;59.27;72726.53;5076543;28;20041;-72
2023/08/22 02:00:41;;;;;;;11.05;8.98;;;;;;;-145.00;59.17;72724.44;5075525;28;20420;-71
2023/08/22 02:03:08;;;;;;;11.93;9.35;;;;;;;-145.00;59.06;72722.34;5073532;28;20056;-71
2023/08/22 02:05:34;;;;;;;11.20;8.52;;;;;;;-145.00;59.13;72720.28;5075116;28;20064;-73
2023/08/22 02:08:01;;;;;;;10.63;8.88;;;;;;;-145.00;59.12;72711.94;5075326;28;20067;-72
2023/08/22 02:10:28;;;;;;;12.45;9.57;;;;;;;-145.00;59.05;72720.28;5072575;28;20059;-72
2023/08/22 02:12:55;;;;;;;10.23;8.77;;;;;;;-145.00;59.00;72722.34;5073353;28;20696;-73
2023/08/22 02:15:22;;;;;;;10.35;9.07;;;;;;;-145.00;58.92;72722.34;5072878;28;20056;-72
2023/08/22 02:17:49;;;;;;;11.80;8.88;;;;;;;-145.00;58.82;72722.34;5072906;28;20053;-71
2023/08/22 02:20:15;;;;;;;11.00;9.00;;;;;;;-145.00;58.94;72739.00;5072171;28;20049;-72
2023/08/22 02:22:42;;;;;;;11.25;9.13;;;;;;;-145.00;59.11;72722.34;5072868;28;20049;-71
2023/08/22 02:25:09;;;;;;;13.65;8.63;;;;;;;-145.00;59.02;72722.34;5071772;28;20056;-72
2023/08/22 02:27:36;;;;;;;11.80;8.77;;;;;;;-145.00;59.25;72726.53;5072477;28;20048;-71
2023/08/22 02:30:06;;;;;;;11.32;9.55;;;;;;;-145.00;59.35;72724.44;5071869;28;20049;-71
2023/08/22 02:32:32;;;;;;;14.57;9.55;;;;;;;-145.00;59.10;72718.19;5071922;28;20060;-71
2023/08/22 02:34:59;;;;;;;11.10;9.05;;;;;;;-145.00;59.07;72718.19;5072004;28;20408;-72
2023/08/22 02:37:25;;;;;;;10.55;9.13;;;;;;;-145.00;59.14;72724.44;5071936;28;20059;-71
2023/08/22 02:39:53;;;;;;;12.10;9.77;;;;;;;-145.00;59.48;72745.25;5071594;28;20452;-72
2023/08/22 02:42:19;;;;;;;12.18;9.45;;;;;;;-145.00;59.80;72747.34;5071472;28;20041;-71
2023/08/22 02:44:46;;;;;;;10.45;8.77;;;;;;;-145.00;59.90;72755.66;5071845;28;20683;-72
2023/08/22 02:47:14;;;;;;;12.13;10.45;;;;;;;-145.00;60.35;72764.00;5071574;28;20048;-72
2023/08/22 02:49:40;;;;;;;10.68;9.07;;;;;;;-145.00;60.29;72761.91;5072041;28;20044;-72
2023/08/22 02:52:07;;;;;;;10.82;8.82;;;;;;;-145.00;60.61;72757.75;5065437;28;20072;-72
2023/08/22 02:54:34;;;;;;;11.80;9.52;;;;;;;-145.00;60.59;72776.47;5063335;28;20415;-72
2023/08/22 02:57:00;;;;;;;11.15;8.82;;;;;;;-145.00;60.95;72805.63;5071542;28;20050;-71
2023/08/22 02:59:26;;;;;;;11.18;8.82;;;;;;;-145.00;60.84;72809.78;5071320;28;20052;-72
2023/08/22 03:01:53;;;;;;;10.05;8.25;;;;;;;-145.00;60.79;72809.78;5071103;28;20041;-72
2023/08/22 03:04:21;;;;;;;10.65;9.43;;;;;;;-145.00;60.97;72803.53;5071098;28;20044;-72
2023/08/22 03:06:47;;;;;;;12.73;9.10;;;;;;;-145.00;60.93;72801.47;5071421;28;20526;-72
2023/08/22 03:09:14;;;;;;;13.27;8.80;;;;;;;-145.00;60.81;72805.63;5070969;28;20037;-71
2023/08/22 03:11:40;;;;;;;11.00;9.68;;;;;;;-145.00;60.87;72803.53;5071630;28;20078;-72
2023/08/22 03:14:07;;;;;;;12.40;9.07;;;;;;;-145.00;61.13;72803.53;5071157;28;20055;-72
2023/08/22 03:16:34;;;;;;;11.07;9.27;;;;;;;-145.00;61.42;72803.53;5071667;28;20051;-72
2023/08/22 03:19:00;;;;;;;10.70;9.07;;;;;;;-145.00;61.41;72803.53;5071399;28;20052;-72
2023/08/22 03:21:28;;;;;;;11.68;8.65;;;;;;;-145.00;61.58;72813.94;5071223;28;20044;-71
2023/08/22 03:23:55;;;;;;;10.80;9.25;;;;;;;-145.00;61.98;72834.78;5071537;28;20060;-72
2023/08/22 03:26:21;;;;;;;11.45;9.27;;;;;;;-145.00;61.80;72830.59;5070805;28;20048;-72
2023/08/22 03:28:48;;;;;;;11.32;8.98;;;;;;;-145.00;61.69;72820.19;5070914;28;20044;-71
2023/08/22 03:31:14;;;;;;;12.77;9.15;;;;;;;-145.00;61.66;72813.94;5070642;28;20064;-72
2023/08/22 03:33:41;;;;;;;11.95;9.70;;;;;;;-145.00;61.87;72813.94;5070704;28;20496;-71
2023/08/22 03:36:07;;;;;;;12.70;9.63;;;;;;;-145.00;61.77;72818.13;5070993;28;20535;-72
2023/08/22 03:38:35;;;;;;;11.02;9.32;;;;;;;-145.00;61.95;72820.19;5070984;28;20048;-72
2023/08/22 03:41:02;;;;;;;10.88;9.05;;;;;;;-145.00;62.00;72820.19;5070610;28;20049;-71
2023/08/22 03:43:29;;;;;;;12.35;9.25;;;;;;;-145.00;61.93;72813.94;5070719;28;20049;-72
2023/08/22 03:45:55;;;;;;;13.23;9.35;;;;;;;-145.00;61.89;72822.28;5071856;28;20043;-72
2023/08/22 03:48:22;;;;;;;12.05;9.18;;;;;;;-145.00;61.90;72824.38;5071079;28;20048;-72
2023/08/22 03:50:48;;;;;;;12.75;9.32;;;;;;;-145.00;61.77;72822.28;5071850;28;20048;-71
2023/08/22 03:53:16;;;;;;;17.92;10.02;;;;;;;-145.00;61.88;72830.59;5070323;28;20049;-72
2023/08/22 03:55:44;;;;;;;10.07;8.90;;;;;;;-145.00;62.05;72830.59;5071648;28;20052;-71
2023/08/22 03:58:11;;;;;;;11.05;8.85;;;;;;;-145.00;62.06;72836.84;5071675;28;20496;-72
2023/08/22 04:00:38;;;;;;;10.27;9.05;;;;;;;-145.00;62.06;72845.19;5071298;28;20051;-72
2023/08/22 04:03:05;;;;;;;11.98;9.57;;;;;;;-145.00;62.21;72851.44;5071671;28;20071;-73
2023/08/22 04:05:31;;;;;;;13.75;9.23;;;;;;;-145.00;62.40;72863.91;5071691;28;20444;-72
2023/08/22 04:07:58;;;;;;;11.95;9.10;;;;;;;-145.00;62.39;72868.09;5071469;28;20051;-72
2023/08/22 04:10:24;;;;;;;10.27;9.00;;;;;;;-145.00;62.49;72870.16;5070551;28;20040;-72
2023/08/22 04:12:52;;;;;;;11.95;9.85;;;;;;;-145.00;62.58;72872.25;5070853;28;20047;-72
2023/08/22 04:15:20;;;;;;;11.43;9.13;;;;;;;-145.00;62.46;72870.16;5066497;28;20052;-73
2023/08/22 04:17:46;;;;;;;10.90;9.05;;;;;;;-145.00;62.24;72872.25;5069963;28;20055;-71
2023/08/22 04:20:13;;;;;;;11.00;8.80;;;;;;;-145.00;62.34;72878.50;5070067;28;20052;-72
2023/08/22 04:22:41;;;;;;;11.85;9.63;;;;;;;-145.00;62.59;72872.25;5070161;28;20408;-71
2023/08/22 04:25:08;;;;;;;12.75;9.65;;;;;;;-145.00;62.20;72872.25;5069747;28;20051;-72
2023/08/22 04:27:35;;;;;;;10.40;9.30;;;;;;;-145.00;62.29;72880.56;5070061;28;20040;-72
2023/08/22 04:30:03;;;;;;;13.88;9.55;;;;;;;-145.00;62.39;72888.91;5070120;28;20056;-71
2023/08/22 04:32:29;;;;;;;11.32;9.90;;;;;;;-145.00;62.55;72897.22;5060538;28;20041;-72
2023/08/22 04:34:56;;;;;;;12.15;9.60;;;;;;;-145.00;62.75;72899.31;5069925;28;20056;-71
2023/08/22 04:37:23;;;;;;;14.60;9.80;;;;;;;-145.00;62.73;72901.38;5069757;28;20407;-72
2023/08/22 04:39:49;;;;;;;11.02;9.25;;;;;;;-145.00;62.75;72897.22;5070074;28;20403;-71
2023/08/22 04:42:16;;;;;;;10.52;9.13;;;;;;;-145.00;62.62;72903.47;5068291;28;20411;-74
2023/08/22 04:44:42;;;;;;;16.08;9.70;;;;;;;-145.00;62.82;72909.72;5062035;28;20048;-75
2023/08/22 04:47:10;;;;;;;12.45;9.40;;;;;;;-145.00;62.63;72907.63;5069551;28;20048;-74
2023/08/22 04:49:37;;;;;;;12.02;10.02;;;;;;;-145.00;62.37;72903.47;5069866;28;20408;-74
2023/08/22 04:52:03;;;;;;;12.38;9.30;;;;;;;-145.00;62.46;72893.06;5069129;28;20052;-74
2023/08/22 04:54:30;;;;;;;10.55;9.40;;;;;;;-145.00;62.11;72897.22;5069562;28;20098;-74
2023/08/22 04:56:57;;;;;;;10.60;9.25;;;;;;;-145.00;61.71;72888.91;5069914;28;20416;-73
2023/08/22 04:59:23;;;;;;;12.75;9.15;;;;;;;-145.00;61.40;72880.56;5066296;28;20041;-75
2023/08/22 05:01:50;;;;;;;12.52;9.30;;;;;;;-145.00;61.32;72880.56;5069279;28;20044;-74
2023/08/22 05:04:18;;;;;;;10.63;8.88;;;;;;;-145.00;61.19;72884.72;5068600;28;20042;-74
2023/08/22 05:06:45;;;;;;;11.27;8.90;;;;;;;-145.00;60.84;72880.56;5069795;28;20040;-74
2023/08/22 05:09:13;;;;;;;11.30;8.70;;;;;;;-145.00;60.47;72880.56;5068801;28;20049;-73
2023/08/22 05:11:40;;;;;;;10.40;8.90;;;;;;;-145.00;60.44;72882.66;5069405;28;20192;-74
2023/08/22 05:14:07;;;;;;;9.88;8.27;;;;;;;-145.00;60.13;72880.56;5068074;28;20037;-74
2023/08/22 05:16:34;;;;;;;10.90;8.50;;;;;;;-145.00;60.15;72868.09;5069096;28;20051;-74
2023/08/22 05:19:00;;;;;;;10.43;8.73;;;;;;;-145.00;59.88;72863.91;5069270;28;20484;-74
2023/08/22 05:21:28;;;;;;;12.50;8.40;;;;;;;-145.00;59.79;72861.84;5069095;28;20037;-74
2023/08/22 05:23:55;;;;;;;9.98;8.43;;;;;;;-145.00;59.50;72853.50;5069365;28;20072;-71
2023/08/22 05:26:21;;;;;;;10.48;7.95;;;;;;;-145.00;59.14;72847.25;5069235;28;20040;-72
2023/08/22 05:28:47;;;;;;;10.88;8.55;;;;;;;-145.00;59.37;72832.69;5069665;28;20047;-71
2023/08/22 05:31:19;;;;;;;9.38;8.40;;;;;;;-145.00;59.55;72830.59;5068990;28;20492;-72
2023/08/22 05:33:46;;;;;;;12.50;8.88;;;;;;;-145.00;59.22;72855.59;5069843;28;20051;-72
2023/08/22 05:36:12;;;;;;;12.93;8.90;;;;;;;-145.00;59.72;72880.56;5068660;28;20041;-72
2023/08/22 05:38:40;;;;;;;13.63;9.13;;;;;;;-145.00;59.51;72897.22;5072444;28;20045;-72
2023/08/22 05:41:06;;;;;;;12.63;9.07;;;;;;;-145.00;59.56;72897.22;5068900;28;20040;-72
2023/08/22 05:43:33;;;;;;;9.60;8.40;;;;;;;-145.00;59.04;72863.91;5069330;28;20048;-72
2023/08/22 05:46:00;;;;;;;13.30;8.50;;;;;;;-145.00;59.07;72878.50;5069322;28;20047;-72
2023/08/22 05:48:27;;;;;;;12.00;8.68;;;;;;;-145.00;58.50;72863.91;5069291;28;20040;-72
2023/08/22 05:50:54;;;;;;;13.15;9.07;;;;;;;-145.00;57.33;72818.13;5069198;28;20114;-72
2023/08/22 05:53:20;;;;;;;12.88;7.75;;;;;;;-145.00;57.67;72813.94;5068929;28;20048;-72
2023/08/22 05:55:48;;;;;;;11.40;8.38;;;;;;;-145.00;57.17;72791.06;5069153;28;20036;-74
2023/08/22 05:58:14;;;;;;;10.35;8.63;;;;;;;-145.00;56.88;72786.88;5073336;28;20051;-74
2023/08/22 06:00:41;;;;;;;12.07;8.35;;;;;;;-145.00;56.48;72764.00;5073067;28;20055;-72
2023/08/22 06:03:08;;;;;;;8.77;7.65;;;;;;;-145.00;56.35;72755.66;5072784;28;20096;-72
2023/08/22 06:05:35;;;;;;;10.52;8.35;;;;;;;-145.00;55.66;72728.59;5072286;28;20051;-72
2023/08/22 06:08:01;;;;;;;12.43;8.93;;;;;;;-145.00;55.96;72722.34;5072416;28;20131;-72
2023/08/22 06:10:28;;;;;;;13.68;9.48;;;;;;;-145.00;55.97;72711.94;5071743;28;20033;-72
2023/08/22 06:12:56;;;;;;;11.65;9.70;;;;;;;-145.00;55.60;72701.53;5071658;28;20044;-72
2023/08/22 06:15:22;;;;;;;14.77;9.07;;;;;;;-145.00;56.25;72697.38;5071546;28;20048;-72
2023/08/22 06:17:49;;;;;;;13.68;9.27;;;;;;;-145.00;55.30;72678.63;5075175;28;20036;-72
2023/08/22 06:20:15;;;;;;;12.02;8.80;;;;;;;-145.00;54.84;72668.22;5073850;28;20049;-72
2023/08/22 06:22:42;;;;;;;13.45;9.77;;;;;;;-145.00;55.23;72680.72;5073891;28;20047;-72
2023/08/22 06:25:09;;;;;;;13.00;9.00;;;;;;;-145.00;55.72;72666.16;5073871;28;20032;-72
2023/08/22 06:27:36;;;;;;;10.63;8.93;;;;;;;-145.00;54.48;72634.94;5073704;28;20040;-72
2023/08/22 06:30:05;;;;;;;9.57;8.15;;;;;;;-145.00;53.70;72622.44;5072920;28;20049;-71
2023/08/22 06:32:31;;;;;;;9.32;8.32;;;;;;;-145.00;54.15;72626.59;5072458;28;20127;-72
2023/08/22 06:35:00;;;;;;;12.38;9.05;;;;;;;-145.00;54.33;72609.94;5072214;28;20500;-72
2023/08/22 06:37:27;;;;;;;13.07;8.35;;;;;;;-145.00;53.76;72597.47;5072131;28;20044;-72
2023/08/22 06:39:53;;;;;;;10.80;8.48;;;;;;;-145.00;54.24;72630.75;5071932;28;20036;-72
2023/08/22 06:42:20;;;;;;;14.13;8.60;;;;;;;-145.00;54.11;72618.28;5071590;28;20454;-73
2023/08/22 06:44:46;;;;;;;13.35;9.18;;;;;;;-145.00;53.38;72591.22;5071974;28;20048;-72
2023/08/22 06:47:15;;;;;;;10.73;9.00;;;;;;;-145.00;53.67;72593.28;5071530;28;20043;-72
2023/08/22 06:49:41;;;;;;;13.77;8.88;;;;;;;-145.00;53.59;72630.75;5071886;28;20412;-73
2023/08/22 06:52:08;;;;;;;12.10;8.45;;;;;;;-145.00;52.65;72578.72;5071285;28;20044;-72
2023/08/22 06:54:34;;;;;;;11.10;8.63;;;;;;;-145.00;51.83;72551.66;5071786;28;20389;-72
2023/08/22 06:57:01;;;;;;;12.02;8.43;;;;;;;-145.00;51.78;72539.16;5071890;28;20050;-72
2023/08/22 06:59:27;;;;;;;9.93;7.68;;;;;;;-145.00;51.51;72551.66;5071465;28;20033;-72
2023/08/22 07:01:53;;;;;;;10.48;7.57;;;;;;;-145.00;51.10;72551.66;5071621;28;20068;-73
2023/08/22 07:04:21;;;;;;;13.30;7.63;;;;;;;-145.00;49.06;72497.53;5071144;28;20400;-72
2023/08/22 07:06:48;;;;;;;11.88;7.38;;;;;;;-145.00;49.51;72501.69;5071435;28;20041;-72
2023/08/22 07:09:14;;;;;;;10.27;7.55;;;;;;;-145.00;49.27;72480.88;5070947;28;20053;-73
2023/08/22 07:11:41;;;;;;;13.15;7.50;;;;;;;-145.00;48.89;72460.06;5071583;28;20063;-72
2023/08/22 07:14:08;;;;;;;10.02;7.70;;;;;;;-145.00;49.55;72493.38;5071064;28;20097;-72
2023/08/22 07:16:35;;;;;;;9.30;7.22;;;;;;;-145.00;49.19;72468.41;5071773;28;20040;-73
2023/08/22 07:19:01;;;;;;;10.85;7.30;;;;;;;-145.00;48.35;72472.56;5071334;28;20489;-72
2023/08/22 07:21:29;;;;;;;12.77;7.40;;;;;;;-145.00;48.16;72445.50;5071190;28;20044;-72
2023/08/22 07:23:56;;;;;;;9.68;7.63;;;;;;;-145.00;48.22;72439.25;5071158;28;20055;-72
2023/08/22 07:26:23;;;;;;;15.48;8.50;;;;;;;-145.00;48.22;72439.25;5070597;28;20156;-72
2023/08/22 07:28:49;;;;;;;12.60;8.23;;;;;;;-145.00;48.36;72460.06;5071075;28;20488;-72
2023/08/22 07:31:16;;;;;;;11.48;8.73;;;;;;;-145.00;48.41;72439.25;5070528;28;20135;-73
2023/08/22 07:33:42;;;;;;;15.25;7.63;;;;;;;-145.00;47.33;72339.34;5071147;28;20036;-72
2023/08/22 07:36:17;;;;;;;12.18;8.18;;;;;;;-145.00;46.72;72310.19;5070614;28;21544;-73
2023/08/22 07:38:45;;;;;;;15.75;9.80;;;;;;;-145.00;45.90;72289.38;5071211;28;20058;-72
2023/08/22 07:41:12;;;;;;;13.43;9.10;;;;;;;-145.00;47.48;72306.03;5070367;28;20550;-72
2023/08/22 07:43:38;;;;;;;15.60;9.57;;;;;;;-145.00;46.56;72303.97;5071027;28;20045;-72
2023/08/22 07:46:05;;;;;;;12.75;9.18;;;;;;;-145.00;46.17;72297.72;5070260;28;20045;-72
2023/08/22 07:48:32;;;;;;;14.98;9.20;;;;;;;-145.00;46.80;72291.47;5070952;28;20056;-73
2023/08/22 07:50:59;;;;;;;12.80;8.43;;;;;;;-145.00;44.94;72181.16;5070657;28;20051;-73
2023/08/22 07:53:25;;;;;;;14.13;9.57;;;;;;;-145.00;44.98;72187.41;5070230;28;20040;-73
2023/08/22 07:55:53;;;;;;;14.98;10.52;;;;;;;-145.00;46.30;72266.50;5070348;28;20040;-72
2023/08/22 07:58:20;;;;;;;14.45;9.63;;;;;;;-145.00;47.18;72287.31;5070340;28;20045;-72
2023/08/22 08:00:48;;;;;;;19.17;10.30;;;;;;;-145.00;46.94;72272.72;5070320;28;20055;-73
2023/08/22 08:03:14;;;;;;;12.45;9.13;;;;;;;-145.00;46.16;72210.28;5069892;28;20523;-72
2023/08/22 08:05:41;;;;;;;15.38;9.50;;;;;;;-145.00;46.59;72185.31;5070421;28;20079;-72
2023/08/22 08:08:07;;;;;;;15.38;9.65;;;;;;;-145.00;43.91;72139.53;5069790;28;20044;-72
2023/08/22 08:10:36;;;;;;;14.38;9.00;;;;;;;-145.00;43.56;72085.41;5071016;28;20048;-72
2023/08/22 08:13:04;;;;;;;14.88;8.93;;;;;;;-145.00;43.55;72047.94;5070354;28;20059;-72
2023/08/22 08:15:31;;;;;;;10.77;8.55;;;;;;;-145.00;42.74;72033.38;5070041;28;20047;-73
2023/08/22 08:18:01;;;;;;;15.32;8.95;;;;;;;-145.00;43.74;72068.75;5070545;28;20036;-72
2023/08/22 08:20:27;;;;;;;13.35;9.00;;;;;;;-145.00;43.50;72102.06;5070240;28;20041;-73
2023/08/22 08:22:54;;;;;;;13.27;7.90;;;;;;;-145.00;44.09;72066.69;5070027;28;20056;-72
2023/08/22 08:25:21;;;;;;;11.23;8.63;;;;;;;-145.00;42.88;72022.97;5069421;28;20044;-73
2023/08/22 08:27:47;;;;;;;15.00;8.90;;;;;;;-145.00;44.00;72087.47;5070162;28;20067;-72
2023/08/22 08:30:15;;;;;;;14.40;9.43;;;;;;;-145.00;43.10;72043.78;5069237;28;20051;-72
2023/08/22 08:32:42;;;;;;;13.55;9.25;;;;;;;-145.00;43.60;72079.16;5069888;28;20676;-73
2023/08/22 08:35:09;;;;;;;17.13;9.73;;;;;;;-145.00;43.92;72056.25;5069408;28;20051;-73
2023/08/22 08:37:36;;;;;;;19.35;11.05;;;;;;;-145.00;43.80;72072.91;5069187;28;20076;-72
2023/08/22 08:40:05;;;;;;;17.67;8.48;;;;;;;-145.00;44.29;72089.56;5069625;28;20040;-72
2023/08/22 08:42:34;;;;;;;16.83;9.10;;;;;;;-145.00;44.05;72093.72;5069793;28;20127;-73
2023/08/22 08:45:02;;;;;;;15.13;8.88;;;;;;;-145.00;44.49;72089.56;5069598;28;20453;-72
2023/08/22 08:47:31;;;;;;;14.20;8.48;;;;;;;-145.00;44.44;72068.75;5069588;28;20044;-72
2023/08/22 08:50:00;;;;;;;13.77;8.80;;;;;;;-145.00;42.09;71956.38;5069765;28;20052;-72
2023/08/22 08:52:27;;;;;;;15.68;9.20;;;;;;;-145.00;40.75;71871.03;5069577;28;20047;-72
2023/08/22 08:54:54;;;;;;;13.82;8.32;;;;;;;-145.00;41.25;71864.78;5069551;28;20047;-72
2023/08/22 08:57:21;;;;;;;15.95;11.35;;;;;;;-145.00;42.04;71966.78;5069017;28;20039;-73
2023/08/22 08:59:48;;;;;;;13.77;8.50;;;;;;;-145.00;42.14;71873.09;5069462;28;20051;-74
2023/08/22 09:02:17;;;;;;;12.45;8.73;;;;;;;-145.00;40.51;71777.38;5069080;28;20056;-74
2023/08/22 09:04:45;;;;;;;16.48;8.57;;;;;;;-145.00;40.35;71756.56;5069507;28;20051;-74
2023/08/22 09:07:11;;;;;;;12.32;8.48;;;;;;;-145.00;40.30;71773.22;5068858;28;20054;-74
2023/08/22 09:09:38;;;;;;;12.63;9.18;;;;;;;-145.00;40.72;71798.19;5069252;28;20070;-74
2023/08/22 09:12:07;;;;;;;10.63;7.45;;;;;;;-145.00;40.43;71681.63;5068820;28;20048;-74
2023/08/22 09:14:34;;;;;;;15.98;8.77;;;;;;;-145.00;39.78;71744.06;5069459;28;20044;-75
2023/08/22 09:17:01;;;;;;;13.63;8.75;;;;;;;-145.00;39.73;71727.41;5069379;28;20055;-75
2023/08/22 09:19:31;;;;;;;12.98;7.63;;;;;;;-145.00;39.37;71667.06;5069220;28;20132;-74
2023/08/22 09:22:02;;;;;;;15.77;7.30;;;;;;;-145.00;36.76;71554.69;5069591;28;20102;-74
2023/08/22 09:24:29;;;;;;;11.52;7.65;;;;;;;-145.00;36.60;71552.59;5069149;28;20048;-74
2023/08/22 09:26:56;;;;;;;12.65;8.10;;;;;;;-145.00;38.69;71677.47;5069438;28;20041;-74
2023/08/22 09:29:27;;;;;;;10.07;7.55;;;;;;;-145.00;38.71;71704.53;5068741;28;20040;-74
2023/08/22 09:31:57;;;;;;;11.32;8.20;;;;;;;-145.00;38.21;71619.19;5069204;28;20071;-74
2023/08/22 09:34:24;;;;;;;13.82;8.57;;;;;;;-145.00;37.78;71598.38;5068630;28;20496;-74
2023/08/22 09:36:53;;;;;;;14.30;8.32;;;;;;;-145.00;37.25;71604.63;5069259;28;20053;-74
2023/08/22 09:39:22;;;;;;;14.75;7.82;;;;;;;-145.00;38.33;71533.88;5068737;28;20052;-74
2023/08/22 09:41:53;;;;;;;14.77;8.15;;;;;;;-145.00;37.28;71590.06;5069221;28;20041;-74
2023/08/22 09:44:22;;;;;;;9.23;7.25;;;;;;;-145.00;37.88;71540.13;5068779;28;20098;-73
2023/08/22 09:46:50;;;;;;;11.05;7.35;;;;;;;-145.00;38.06;71631.69;5069181;28;20047;-74
2023/08/22 09:49:16;;;;;;;11.35;7.20;;;;;;;-145.00;37.03;71565.09;5068578;28;20057;-74
2023/08/22 09:51:44;;;;;;;10.20;7.05;;;;;;;-145.00;37.44;71515.16;5072524;28;20047;-74
2023/08/22 09:54:11;;;;;;;17.90;7.38;;;;;;;-145.00;36.27;71481.84;5072179;28;20040;-74
2023/08/22 09:56:40;;;;;;;9.88;6.80;;;;;;;-145.00;36.46;71465.19;5073002;28;20055;-74
2023/08/22 09:59:06;;;;;;;10.10;7.28;;;;;;;-145.00;36.59;71502.66;5072219;28;20381;-74
2023/08/22 10:01:39;;;;;;;11.48;6.47;;;;;;;-145.00;37.00;71496.41;5072638;28;20403;-74
2023/08/22 10:04:06;;;;;;;14.07;7.30;;;;;;;-145.00;35.89;71492.25;5072211;28;20122;-74
2023/08/22 10:06:34;;;;;;;10.75;7.05;;;;;;;-145.00;35.64;71454.78;5072745;28;20048;-74
2023/08/22 10:09:07;;;;;;;12.10;6.30;;;;;;;-145.00;35.50;71411.09;5072540;28;20048;-74
2023/08/22 10:11:36;;;;;;;12.32;7.05;;;;;;;-145.00;35.50;71363.22;5072561;28;20052;-74
2023/08/22 10:14:05;;;;;;;9.95;6.38;;;;;;;-145.00;34.81;71413.19;5071897;28;20037;-73
2023/08/22 10:16:32;;;;;;;13.30;7.53;;;;;;;-145.00;36.69;71444.38;5072520;28;20435;-74
2023/08/22 10:19:02;;;;;;;11.38;7.53;;;;;;;-145.00;35.56;71456.88;5072569;28;20045;-74
2023/08/22 10:21:33;;;;;;;8.80;7.43;;;;;;;-145.00;35.83;71409.00;5071939;28;20036;-74
2023/08/22 10:24:00;;;;;;;12.63;7.70;;;;;;;-145.00;35.55;71431.91;5072214;28;20044;-74
2023/08/22 10:26:46;;;;;;;11.52;7.00;;;;;;;-145.00;35.77;71373.63;5071700;28;20994;-74
2023/08/22 10:29:15;;;;;;;16.85;7.47;;;;;;;-145.00;34.96;71334.09;5071458;28;20052;-74
2023/08/22 10:32:22;;;;;;;8.68;6.80;;;;;;;-145.00;34.33;71332.00;5072342;28;20044;-74
2023/08/22 10:35:06;;;;;;;12.02;6.72;;;;;;;-145.00;35.89;71506.81;5054422;28;20049;-73
2023/08/22 10:37:33;;;;;;;10.13;7.10;;;;;;;-145.00;35.95;71548.44;5063920;28;20060;-74
2023/08/22 10:40:06;;;;;;;10.60;7.22;;;;;;;-145.00;35.21;71475.59;5072246;28;20140;-74
2023/08/22 10:42:33;;;;;;;11.27;6.75;;;;;;;-145.00;36.35;71527.63;5071793;28;20072;-74
2023/08/22 10:45:01;;;;;;;11.07;6.50;;;;;;;-145.00;35.53;71471.44;5071839;28;20522;-74
2023/08/22 10:47:30;;;;;;;9.85;7.15;;;;;;;-145.00;36.51;71415.25;5071579;28;20036;-74
2023/08/22 10:49:58;;;;;;;15.38;6.60;;;;;;;-145.00;34.83;71377.81;5071991;28;20148;-73
2023/08/22 10:52:26;;;;;;;10.32;6.57;;;;;;;-145.00;34.83;71406.94;5071391;28;20041;-74
2023/08/22 10:55:08;;;;;;;11.98;6.47;;;;;;;-145.00;35.33;71352.81;5071961;28;20052;-73
2023/08/22 10:57:36;;;;;;;11.68;6.78;;;;;;;-145.00;35.08;71386.13;5063751;28;20040;-74
2023/08/22 11:00:12;;;;;;;8.05;6.45;;;;;;;-145.00;34.83;71381.97;5070877;28;20049;-74
2023/08/22 11:02:40;;;;;;;9.23;6.78;;;;;;;-145.00;35.11;71404.84;5071140;28;20044;-74
2023/08/22 11:05:10;;;;;;;11.80;7.07;;;;;;;-145.00;35.41;71488.09;5071251;28;20119;-74
2023/08/22 11:07:39;;;;;;;9.98;6.28;;;;;;;-145.00;34.78;71444.38;5071728;28;20068;-74
2023/08/22 11:10:07;;;;;;;10.90;6.63;;;;;;;-145.00;35.44;71448.56;5071361;28;20076;-73
2023/08/22 11:12:35;;;;;;;10.65;6.53;;;;;;;-145.00;35.79;71431.91;5071214;28;20070;-73